Time;durP1;ratioP1;P1;durP2;ratioP2;P2;SDS_P1;SDS_P2;PMS_P1;PMS_P2;Temp;Humidity;BMP_temperature;BMP_pressure;BME280_temperature;BME280_humidity;BME280_pressure;Samples;Min_cycle;Max_cycle;Signal;HPM_P1;HPM_P2
2022/09/01 00:00:27;;;;;;;23.37;5.27;;;;;;;;;;5130508;28;20419;-69
2022/09/01 00:02:54;;;;;;;5.47;5.10;;;;;;;;;;5128659;28;20439;-69
2022/09/01 00:05:20;;;;;;;6.40;4.50;;;;;;;;;;5129867;28;20840;-69
2022/09/01 00:07:46;;;;;;;3.67;3.40;;;;;;;;;;5130272;27;20510;-69
2022/09/01 00:10:12;;;;;;;4.40;4.00;;;;;;;;;;5130635;28;20505;-69
2022/09/01 00:12:38;;;;;;;4.77;4.57;;;;;;;;;;5130295;28;20579;-69
2022/09/01 00:15:05;;;;;;;4.30;4.17;;;;;;;;;;5129431;28;20442;-69
2022/09/01 00:17:32;;;;;;;4.83;4.57;;;;;;;;;;5129935;28;20603;-69
2022/09/01 00:19:58;;;;;;;7.63;3.17;;;;;;;;;;5130214;28;20442;-69
2022/09/01 00:22:24;;;;;;;3.47;3.23;;;;;;;;;;5129413;28;20429;-69
2022/09/01 00:24:50;;;;;;;2.93;2.83;;;;;;;;;;5129729;28;20443;-69
2022/09/01 00:27:16;;;;;;;3.90;3.80;;;;;;;;;;5129829;28;20435;-69
2022/09/01 00:29:42;;;;;;;3.90;3.80;;;;;;;;;;5130240;28;21804;-69
2022/09/01 00:32:08;;;;;;;6.70;3.50;;;;;;;;;;5129704;28;20431;-69
2022/09/01 00:34:34;;;;;;;4.07;3.83;;;;;;;;;;5129263;28;20513;-68
2022/09/01 00:37:00;;;;;;;4.27;4.07;;;;;;;;;;5129298;28;20941;-69
2022/09/01 00:39:26;;;;;;;6.77;4.43;;;;;;;;;;5129305;28;20794;-69
2022/09/01 00:41:52;;;;;;;11.53;5.23;;;;;;;;;;5129886;28;20463;-69
2022/09/01 00:44:22;;;;;;;4.40;4.33;;;;;;;;;;5130014;28;20462;-69
2022/09/01 00:46:48;;;;;;;3.57;3.47;;;;;;;;;;5129594;28;20426;-69
2022/09/01 00:49:17;;;;;;;5.00;4.70;;;;;;;;;;5130044;28;20514;-69
2022/09/01 00:51:46;;;;;;;7.80;5.70;;;;;;;;;;5128238;28;20507;-69
2022/09/01 00:54:15;;;;;;;6.50;6.10;;;;;;;;;;5129300;28;20831;-70
2022/09/01 00:56:41;;;;;;;5.83;5.50;;;;;;;;;;5129715;28;20478;-69
2022/09/01 00:59:10;;;;;;;7.57;6.47;;;;;;;;;;5130057;28;20480;-69
2022/09/01 01:01:36;;;;;;;7.23;5.17;;;;;;;;;;5129567;28;20430;-69
2022/09/01 01:04:03;;;;;;;8.83;6.00;;;;;;;;;;5129609;27;20978;-69
2022/09/01 01:06:31;;;;;;;6.40;6.10;;;;;;;;;;5133003;27;20922;-69
2022/09/01 01:08:59;;;;;;;7.07;6.37;;;;;;;;;;5132545;27;20433;-69
2022/09/01 01:11:26;;;;;;;9.83;6.67;;;;;;;;;;5133991;27;20410;-69
2022/09/01 01:14:11;;;;;;;7.43;6.77;;;;;;;;;;5133830;27;20445;-69
2022/09/01 01:16:39;;;;;;;10.33;6.63;;;;;;;;;;5133000;27;20446;-69
2022/09/01 01:23:00;;;;;;;7.03;6.50;;;;;;;;;;5133413;27;20474;-69
2022/09/01 01:24:37;;;;;;;7.97;7.37;;;;;;;;;;5125813;27;20455;-69
2022/09/01 01:27:04;;;;;;;8.53;7.40;;;;;;;;;;5132173;27;20431;-69
2022/09/01 01:29:35;;;;;;;7.07;6.57;;;;;;;;;;5132319;27;20438;-69
2022/09/01 01:32:02;;;;;;;8.77;8.17;;;;;;;;;;5132356;27;20439;-69
2022/09/01 01:34:28;;;;;;;8.90;8.03;;;;;;;;;;5132330;27;20918;-69
2022/09/01 01:36:58;;;;;;;9.00;8.20;;;;;;;;;;5132519;27;20421;-69
2022/09/01 01:39:24;;;;;;;8.47;7.77;;;;;;;;;;5132231;27;20435;-69
2022/09/01 01:41:51;;;;;;;8.20;7.43;;;;;;;;;;5132898;27;20803;-69
2022/09/01 01:44:18;;;;;;;9.00;8.40;;;;;;;;;;5132832;27;20476;-69
2022/09/01 01:46:46;;;;;;;14.13;8.80;;;;;;;;;;5132078;27;20457;-69
2022/09/01 01:49:14;;;;;;;7.23;6.80;;;;;;;;;;5132875;27;20934;-69
2022/09/01 01:51:40;;;;;;;9.03;8.33;;;;;;;;;;5132429;27;20426;-69
2022/09/01 01:54:06;;;;;;;8.50;7.70;;;;;;;;;;5132554;27;20422;-69
2022/09/01 01:56:36;;;;;;;7.87;7.20;;;;;;;;;;5132111;27;20441;-69
2022/09/01 01:59:03;;;;;;;8.50;7.67;;;;;;;;;;5132033;27;20485;-69
2022/09/01 02:01:30;;;;;;;7.97;7.27;;;;;;;;;;5132837;27;20417;-69
2022/09/01 02:03:57;;;;;;;7.57;7.07;;;;;;;;;;5131792;27;20430;-69
2022/09/01 02:06:24;;;;;;;6.93;6.33;;;;;;;;;;5132281;27;20562;-68
2022/09/01 02:08:57;;;;;;;7.90;7.20;;;;;;;;;;5131467;27;20807;-69
2022/09/01 02:11:27;;;;;;;7.97;7.40;;;;;;;;;;5132428;27;20807;-69
2022/09/01 02:13:56;;;;;;;8.67;7.83;;;;;;;;;;5132632;27;20507;-70
2022/09/01 02:16:22;;;;;;;7.40;6.70;;;;;;;;;;5132292;27;20430;-69
2022/09/01 02:18:50;;;;;;;8.47;7.77;;;;;;;;;;5131604;27;20490;-69
2022/09/01 02:21:19;;;;;;;9.70;8.10;;;;;;;;;;5132091;27;20422;-69
2022/09/01 02:23:59;;;;;;;9.00;8.23;;;;;;;;;;5131615;27;20419;-69
2022/09/01 02:26:30;;;;;;;12.70;9.60;;;;;;;;;;5132531;27;20442;-68
2022/09/01 02:29:00;;;;;;;4.30;4.10;;;;;;;;;;5131826;27;20858;-69
2022/09/01 02:31:27;;;;;;;10.80;9.67;;;;;;;;;;5131584;27;20834;-69
2022/09/01 02:33:53;;;;;;;10.93;9.87;;;;;;;;;;5131746;27;20430;-69
2022/09/01 02:36:20;;;;;;;10.70;9.60;;;;;;;;;;5131868;27;20419;-69
2022/09/01 02:38:47;;;;;;;12.03;10.93;;;;;;;;;;5112895;27;20846;-68
2022/09/01 02:41:18;;;;;;;20.37;10.17;;;;;;;;;;5131592;27;20431;-69
2022/09/01 02:43:45;;;;;;;9.03;8.30;;;;;;;;;;5131867;27;20434;-69
2022/09/01 02:46:11;;;;;;;13.70;10.87;;;;;;;;;;5131534;27;20426;-69
2022/09/01 02:48:40;;;;;;;10.90;9.90;;;;;;;;;;5131416;27;20423;-68
2022/09/01 02:51:07;;;;;;;11.07;10.07;;;;;;;;;;5130939;27;20446;-69
2022/09/01 02:53:34;;;;;;;13.70;12.43;;;;;;;;;;5131698;27;20466;-69
2022/09/01 02:56:01;;;;;;;10.10;9.33;;;;;;;;;;5131913;27;20501;-69
2022/09/01 02:58:28;;;;;;;12.33;10.17;;;;;;;;;;5112196;27;20492;-69
2022/09/01 03:00:55;;;;;;;8.73;7.97;;;;;;;;;;5131484;27;20426;-69
2022/09/01 03:03:21;;;;;;;7.07;6.40;;;;;;;;;;5131490;27;21111;-69
2022/09/01 03:05:48;;;;;;;7.00;6.50;;;;;;;;;;5131231;27;20509;-69
2022/09/01 03:08:15;;;;;;;7.27;6.00;;;;;;;;;;5130649;27;20431;-69
2022/09/01 03:10:42;;;;;;;6.97;6.57;;;;;;;;;;5130925;27;20427;-69
2022/09/01 03:13:13;;;;;;;10.50;7.40;;;;;;;;;;5131224;27;20791;-69
2022/09/01 03:15:39;;;;;;;6.53;6.20;;;;;;;;;;5131413;27;20996;-70
2022/09/01 03:18:06;;;;;;;6.30;5.90;;;;;;;;;;5130643;27;20485;-69
2022/09/01 03:20:33;;;;;;;7.40;6.77;;;;;;;;;;5130943;27;20490;-69
2022/09/01 03:23:00;;;;;;;7.53;6.80;;;;;;;;;;5131352;27;20488;-69
2022/09/01 03:25:28;;;;;;;8.70;8.00;;;;;;;;;;5131136;27;20826;-70
2022/09/01 03:27:58;;;;;;;15.80;11.20;;;;;;;;;;5130426;27;20430;-68
2022/09/01 03:30:24;;;;;;;11.70;10.80;;;;;;;;;;5130986;27;20442;-69
2022/09/01 03:32:50;;;;;;;15.47;10.73;;;;;;;;;;5130616;27;20473;-69
2022/09/01 03:35:16;;;;;;;10.77;9.97;;;;;;;;;;5130219;27;20502;-69
2022/09/01 03:37:43;;;;;;;10.90;10.00;;;;;;;;;;5129450;27;20470;-69
2022/09/01 03:40:10;;;;;;;10.10;9.10;;;;;;;;;;5130649;27;20435;-70
2022/09/01 03:42:36;;;;;;;10.80;9.80;;;;;;;;;;5130809;27;20658;-69
2022/09/01 03:45:08;;;;;;;13.03;8.93;;;;;;;;;;5129692;27;20549;-69
2022/09/01 03:47:40;;;;;;;10.57;9.77;;;;;;;;;;5128966;27;20427;-69
2022/09/01 03:50:20;;;;;;;10.20;9.30;;;;;;;;;;5129646;27;20526;-69
2022/09/01 03:52:51;;;;;;;9.63;8.70;;;;;;;;;;5130561;27;20948;-69
2022/09/01 03:55:22;;;;;;;11.93;10.23;;;;;;;;;;5129542;27;20465;-69
2022/09/01 03:57:49;;;;;;;11.40;10.40;;;;;;;;;;5130045;27;20485;-69
2022/09/01 04:00:19;;;;;;;12.10;10.43;;;;;;;;;;5130261;28;20426;-69
2022/09/01 04:02:48;;;;;;;12.17;8.93;;;;;;;;;;5129512;28;20450;-69
2022/09/01 04:05:14;;;;;;;7.13;6.73;;;;;;;;;;5129648;28;20434;-69
2022/09/01 04:07:40;;;;;;;6.33;6.03;;;;;;;;;;5129446;28;20559;-70
2022/09/01 04:10:10;;;;;;;5.83;5.53;;;;;;;;;;5130499;28;20467;-69
2022/09/01 04:12:36;;;;;;;5.70;5.50;;;;;;;;;;5129695;28;21011;-69
2022/09/01 04:15:03;;;;;;;5.30;5.10;;;;;;;;;;5130279;28;20423;-69
2022/09/01 04:20:14;;;;;;;7.30;6.90;;;;;;;;;;5129616;28;20990;-69
2022/09/01 04:22:41;;;;;;;11.47;6.67;;;;;;;;;;5129755;28;20488;-69
2022/09/01 04:25:07;;;;;;;9.13;7.57;;;;;;;;;;5130181;28;20447;-69
2022/09/01 04:27:39;;;;;;;8.20;7.63;;;;;;;;;;5129241;28;20915;-69
2022/09/01 04:30:09;;;;;;;7.37;6.87;;;;;;;;;;5129532;28;20434;-69
2022/09/01 04:32:36;;;;;;;8.50;7.80;;;;;;;;;;5129176;28;20446;-69
2022/09/01 04:35:03;;;;;;;8.10;7.40;;;;;;;;;;5129837;28;20433;-69
2022/09/01 04:37:29;;;;;;;9.33;8.50;;;;;;;;;;5129155;28;20466;-70
2022/09/01 04:39:56;;;;;;;9.93;9.20;;;;;;;;;;5130949;27;20438;-69
2022/09/01 04:42:22;;;;;;;9.47;8.47;;;;;;;;;;5134281;27;20953;-69
2022/09/01 04:44:49;;;;;;;7.77;7.07;;;;;;;;;;5134418;27;20422;-69
2022/09/01 04:47:17;;;;;;;8.07;7.30;;;;;;;;;;5133135;27;20422;-69
2022/09/01 04:49:44;;;;;;;6.47;6.17;;;;;;;;;;5133421;27;20926;-69
2022/09/01 04:52:11;;;;;;;6.53;6.13;;;;;;;;;;5133727;27;20431;-69
2022/09/01 04:54:37;;;;;;;8.53;7.67;;;;;;;;;;5133115;27;20435;-68
2022/09/01 04:57:05;;;;;;;8.33;7.53;;;;;;;;;;5133347;27;20449;-69
2022/09/01 04:59:32;;;;;;;8.13;7.37;;;;;;;;;;5133395;27;20519;-70
2022/09/01 05:01:59;;;;;;;10.93;7.60;;;;;;;;;;5133595;27;20426;-69
2022/09/01 05:04:26;;;;;;;12.40;8.70;;;;;;;;;;5132606;27;20427;-69
2022/09/01 05:06:58;;;;;;;11.03;9.10;;;;;;;;;;5124818;27;20452;-69
2022/09/01 05:09:24;;;;;;;10.87;9.70;;;;;;;;;;5132121;27;20513;-69
2022/09/01 05:11:51;;;;;;;12.80;9.87;;;;;;;;;;5132790;27;20450;-69
2022/09/01 05:14:18;;;;;;;17.90;9.70;;;;;;;;;;5132208;27;20430;-69
2022/09/01 05:16:45;;;;;;;18.87;12.20;;;;;;;;;;5132799;27;20453;-69
2022/09/01 05:19:13;;;;;;;12.17;11.07;;;;;;;;;;5132557;27;20535;-69
2022/09/01 05:21:39;;;;;;;12.10;11.00;;;;;;;;;;5114462;27;20433;-69
2022/09/01 05:24:09;;;;;;;15.43;11.93;;;;;;;;;;5113739;27;20439;-69
2022/09/01 05:26:39;;;;;;;13.37;11.97;;;;;;;;;;5114598;27;20414;-69
2022/09/01 05:29:12;;;;;;;14.77;13.27;;;;;;;;;;5132566;27;20453;-69
2022/09/01 05:31:39;;;;;;;16.10;12.57;;;;;;;;;;5132876;27;20425;-69
2022/09/01 05:34:06;;;;;;;13.80;12.40;;;;;;;;;;5133019;27;20415;-69
2022/09/01 05:36:32;;;;;;;14.63;12.90;;;;;;;;;;5132236;27;20423;-69
2022/09/01 05:38:59;;;;;;;14.10;12.70;;;;;;;;;;5132729;27;20502;-68
2022/09/01 05:41:25;;;;;;;15.73;14.13;;;;;;;;;;5132402;27;20458;-69
2022/09/01 05:43:53;;;;;;;16.07;14.30;;;;;;;;;;5132783;27;20965;-69
2022/09/01 05:46:26;;;;;;;19.73;14.30;;;;;;;;;;5132547;27;20510;-68
2022/09/01 05:48:53;;;;;;;14.30;12.90;;;;;;;;;;5131894;27;20433;-68
2022/09/01 05:51:25;;;;;;;13.87;12.43;;;;;;;;;;5130830;27;20434;-69
2022/09/01 05:53:54;;;;;;;17.30;14.07;;;;;;;;;;5113639;27;20462;-68
2022/09/01 05:56:21;;;;;;;22.20;14.30;;;;;;;;;;5132288;27;20454;-69
2022/09/01 05:58:47;;;;;;;16.00;14.33;;;;;;;;;;5131982;27;21029;-68
2022/09/01 06:01:20;;;;;;;16.80;14.83;;;;;;;;;;5131606;27;20465;-69
2022/09/01 06:03:48;;;;;;;15.40;12.40;;;;;;;;;;5130928;27;20434;-69
2022/09/01 06:06:15;;;;;;;14.57;13.07;;;;;;;;;;5130450;27;20513;-69
2022/09/01 06:08:41;;;;;;;13.77;12.33;;;;;;;;;;5129637;27;20816;-69
2022/09/01 06:11:13;;;;;;;13.37;12.13;;;;;;;;;;5113733;27;20430;-69
2022/09/01 06:13:40;;;;;;;19.80;13.50;;;;;;;;;;5113862;27;20437;-69
2022/09/01 06:16:07;;;;;;;18.50;13.67;;;;;;;;;;5132398;27;20422;-69
2022/09/01 06:18:33;;;;;;;15.47;13.97;;;;;;;;;;5131292;27;20511;-69
2022/09/01 06:21:02;;;;;;;16.17;12.53;;;;;;;;;;5112973;27;20427;-69
2022/09/01 06:23:28;;;;;;;16.73;14.00;;;;;;;;;;5113262;27;20469;-69
2022/09/01 06:25:54;;;;;;;15.53;12.40;;;;;;;;;;5131705;27;20791;-69
2022/09/01 06:28:22;;;;;;;13.87;11.93;;;;;;;;;;5129667;27;20449;-69
2022/09/01 06:30:49;;;;;;;14.70;13.13;;;;;;;;;;5131447;27;20216;-70
2022/09/01 06:33:15;;;;;;;14.67;13.13;;;;;;;;;;5131484;27;20554;-70
2022/09/01 06:35:43;;;;;;;15.87;13.87;;;;;;;;;;5131297;27;20435;-70
2022/09/01 06:38:10;;;;;;;17.87;13.60;;;;;;;;;;5130433;27;20481;-70
2022/09/01 06:40:38;;;;;;;14.13;12.63;;;;;;;;;;5131304;27;20426;-70
2022/09/01 06:43:06;;;;;;;13.30;12.03;;;;;;;;;;5131763;27;20856;-70
2022/09/01 06:45:33;;;;;;;15.10;13.10;;;;;;;;;;5129678;27;20549;-70
2022/09/01 06:48:00;;;;;;;14.00;12.60;;;;;;;;;;5131112;27;20439;-70
2022/09/01 06:50:26;;;;;;;13.40;12.00;;;;;;;;;;5113087;27;20419;-69
2022/09/01 06:53:00;;;;;;;15.00;12.83;;;;;;;;;;5130375;27;20415;-66
2022/09/01 06:55:30;;;;;;;12.70;11.50;;;;;;;;;;5131652;27;20430;-67
2022/09/01 06:57:57;;;;;;;14.90;12.37;;;;;;;;;;5130398;27;21249;-69
2022/09/01 07:00:25;;;;;;;17.40;12.20;;;;;;;;;;5131128;27;20461;-67
2022/09/01 07:02:55;;;;;;;17.80;11.67;;;;;;;;;;5131149;27;20781;-69
2022/09/01 07:05:22;;;;;;;14.33;11.93;;;;;;;;;;5131109;27;20807;-68
2022/09/01 07:07:50;;;;;;;13.67;12.47;;;;;;;;;;5130556;27;20431;-69
2022/09/01 07:10:19;;;;;;;12.67;11.17;;;;;;;;;;5130341;27;20426;-67
2022/09/01 07:12:46;;;;;;;13.20;11.07;;;;;;;;;;5106948;27;20791;-67
2022/09/01 07:15:16;;;;;;;12.23;11.03;;;;;;;;;;5130692;27;20441;-68
2022/09/01 07:17:52;;;;;;;15.43;10.97;;;;;;;;;;5130692;27;20476;-64
2022/09/01 07:20:20;;;;;;;12.77;11.57;;;;;;;;;;5130313;27;20971;-64
2022/09/01 07:22:46;;;;;;;11.23;10.23;;;;;;;;;;5130105;27;20510;-61
2022/09/01 07:25:12;;;;;;;11.80;10.67;;;;;;;;;;5130038;27;20442;-62
2022/09/01 07:27:49;;;;;;;12.60;11.17;;;;;;;;;;5129866;27;20458;-61
2022/09/01 07:30:16;;;;;;;11.50;10.60;;;;;;;;;;5129352;27;20431;-67
2022/09/01 07:32:43;;;;;;;12.10;10.90;;;;;;;;;;5130310;27;21274;-61
2022/09/01 07:35:10;;;;;;;15.10;10.17;;;;;;;;;;5129289;27;20426;-64
2022/09/01 07:37:36;;;;;;;11.20;9.87;;;;;;;;;;5130229;27;20462;-65
2022/09/01 07:40:05;;;;;;;11.53;10.10;;;;;;;;;;5129059;27;20538;-61
2022/09/01 07:42:31;;;;;;;10.70;9.50;;;;;;;;;;5129050;27;20435;-61
2022/09/01 07:44:57;;;;;;;14.30;9.90;;;;;;;;;;5130601;27;20431;-61
2022/09/01 07:47:23;;;;;;;9.93;9.10;;;;;;;;;;5130483;27;20415;-61
2022/09/01 07:49:49;;;;;;;11.90;10.67;;;;;;;;;;5129440;27;20434;-61
2022/09/01 07:52:17;;;;;;;11.03;9.17;;;;;;;;;;5129839;27;20991;-61
2022/09/01 07:54:43;;;;;;;9.80;9.00;;;;;;;;;;5129758;27;20215;-60
2022/09/01 07:57:09;;;;;;;10.50;9.60;;;;;;;;;;5127807;27;20827;-61
2022/09/01 07:59:35;;;;;;;10.20;9.37;;;;;;;;;;5129986;27;20590;-61
2022/09/01 08:02:04;;;;;;;11.37;10.07;;;;;;;;;;5129791;28;20427;-61
2022/09/01 08:04:30;;;;;;;11.33;10.37;;;;;;;;;;5129546;28;20423;-61
2022/09/01 08:06:56;;;;;;;10.30;9.40;;;;;;;;;;5130131;28;20918;-61
2022/09/01 08:09:22;;;;;;;10.50;9.20;;;;;;;;;;5130117;28;21011;-61
2022/09/01 08:11:48;;;;;;;10.07;9.27;;;;;;;;;;5130485;27;20828;-61
2022/09/01 08:14:14;;;;;;;10.93;9.93;;;;;;;;;;5132112;27;20450;-61
2022/09/01 08:16:40;;;;;;;11.23;9.77;;;;;;;;;;5134256;27;20425;-61
2022/09/01 08:19:06;;;;;;;10.80;9.47;;;;;;;;;;5133560;27;20487;-63
2022/09/01 08:21:32;;;;;;;10.67;9.30;;;;;;;;;;5132852;27;20827;-65
2022/09/01 08:23:58;;;;;;;12.27;10.17;;;;;;;;;;5111438;27;21051;-61
2022/09/01 08:26:25;;;;;;;15.23;10.20;;;;;;;;;;5133368;27;20433;-61
2022/09/01 08:28:52;;;;;;;9.83;9.03;;;;;;;;;;5133263;27;20503;-64
2022/09/01 08:31:19;;;;;;;10.60;9.70;;;;;;;;;;5134159;27;20941;-61
2022/09/01 08:33:48;;;;;;;11.30;10.17;;;;;;;;;;5133537;27;20521;-61
2022/09/01 08:36:14;;;;;;;10.17;9.33;;;;;;;;;;5132733;27;20450;-64
2022/09/01 08:38:41;;;;;;;10.23;9.40;;;;;;;;;;5133120;27;20991;-68
2022/09/01 08:41:15;;;;;;;10.53;9.63;;;;;;;;;;5129049;27;20483;-62
2022/09/01 08:43:41;;;;;;;10.70;9.70;;;;;;;;;;5133447;27;20942;-70
2022/09/01 08:46:12;;;;;;;11.17;9.97;;;;;;;;;;5133292;27;20433;-69
2022/09/01 08:48:41;;;;;;;14.77;8.90;;;;;;;;;;5131754;27;20181;-65
2022/09/01 08:51:27;;;;;;;14.73;8.97;;;;;;;;;;5132719;27;20965;-68
2022/09/01 08:53:59;;;;;;;11.40;10.30;;;;;;;;;;5114493;27;20442;-70
2022/09/01 08:56:25;;;;;;;9.00;8.30;;;;;;;;;;5132837;27;20465;-66
2022/09/01 08:58:51;;;;;;;9.43;8.37;;;;;;;;;;5113698;27;20830;-62
2022/09/01 09:01:26;;;;;;;8.70;8.00;;;;;;;;;;5132683;27;20437;-69
2022/09/01 09:03:58;;;;;;;8.20;7.60;;;;;;;;;;5114096;27;20529;-70
2022/09/01 09:06:36;;;;;;;8.10;7.47;;;;;;;;;;5130962;27;20415;-63
2022/09/01 09:09:07;;;;;;;7.80;7.20;;;;;;;;;;5131389;27;20517;-70
2022/09/01 09:11:49;;;;;;;8.57;7.90;;;;;;;;;;5132460;27;20502;-67
2022/09/01 09:14:33;;;;;;;8.57;7.87;;;;;;;;;;5131701;27;20991;-67
2022/09/01 09:17:00;;;;;;;9.07;8.20;;;;;;;;;;5131491;27;20469;-68
2022/09/01 09:19:30;;;;;;;7.90;7.10;;;;;;;;;;5132154;27;20507;-71
2022/09/01 09:21:58;;;;;;;9.07;8.20;;;;;;;;;;5132187;27;20427;-61
2022/09/01 09:24:27;;;;;;;8.03;7.23;;;;;;;;;;5133472;27;20430;-69
2022/09/01 09:26:55;;;;;;;8.50;7.80;;;;;;;;;;5131724;27;20426;-69
2022/09/01 09:29:21;;;;;;;8.53;7.90;;;;;;;;;;5133139;27;20481;-69
2022/09/01 09:31:52;;;;;;;8.97;8.37;;;;;;;;;;5132548;27;20487;-70
2022/09/01 09:34:31;;;;;;;9.47;8.70;;;;;;;;;;5130381;27;20477;-69
2022/09/01 09:37:00;;;;;;;8.70;8.07;;;;;;;;;;5129951;27;20422;-66
2022/09/01 09:39:27;;;;;;;8.30;7.63;;;;;;;;;;5132050;27;20873;-60
2022/09/01 09:42:07;;;;;;;7.57;6.97;;;;;;;;;;5130476;27;20944;-70
2022/09/01 09:44:40;;;;;;;8.37;7.63;;;;;;;;;;5132427;27;20438;-70
2022/09/01 09:47:06;;;;;;;8.30;7.70;;;;;;;;;;5131754;27;20550;-69
2022/09/01 09:49:32;;;;;;;8.07;7.43;;;;;;;;;;5132637;27;20467;-67
2022/09/01 09:52:01;;;;;;;7.37;6.77;;;;;;;;;;5132969;27;20783;-68
2022/09/01 09:54:28;;;;;;;8.00;6.53;;;;;;;;;;5132678;27;20933;-69
2022/09/01 09:57:13;;;;;;;7.50;7.00;;;;;;;;;;5132114;27;20470;-66
2022/09/01 09:59:42;;;;;;;8.10;7.40;;;;;;;;;;5114595;27;20458;-66
2022/09/01 10:02:17;;;;;;;7.17;6.57;;;;;;;;;;5131779;27;20418;-68
2022/09/01 10:04:43;;;;;;;6.70;6.40;;;;;;;;;;5132157;27;20442;-67
2022/09/01 10:07:24;;;;;;;6.53;6.23;;;;;;;;;;5132046;27;20406;-66
2022/09/01 10:09:50;;;;;;;5.60;5.40;;;;;;;;;;5132353;27;20480;-66
2022/09/01 10:12:17;;;;;;;7.43;6.40;;;;;;;;;;5132696;27;20459;-66
2022/09/01 10:14:47;;;;;;;6.80;6.27;;;;;;;;;;5131736;27;20425;-68
2022/09/01 10:17:15;;;;;;;6.60;6.20;;;;;;;;;;5131251;27;20430;-67
2022/09/01 10:19:47;;;;;;;6.60;6.00;;;;;;;;;;5132150;27;20430;-66
2022/09/01 10:22:14;;;;;;;6.07;5.47;;;;;;;;;;5131517;27;20411;-67
2022/09/01 10:24:40;;;;;;;5.23;5.03;;;;;;;;;;5131839;27;20436;-66
2022/09/01 10:27:10;;;;;;;5.70;5.50;;;;;;;;;;5130735;27;20418;-67
2022/09/01 10:29:37;;;;;;;5.40;5.10;;;;;;;;;;5132169;27;20423;-67
2022/09/01 10:32:07;;;;;;;5.20;4.87;;;;;;;;;;5132368;27;20764;-66
2022/09/01 10:34:36;;;;;;;5.20;4.90;;;;;;;;;;5130686;27;20425;-67
2022/09/01 10:37:02;;;;;;;4.87;4.67;;;;;;;;;;5129144;27;20430;-66
2022/09/01 10:39:28;;;;;;;5.60;5.30;;;;;;;;;;5131488;27;20880;-66
2022/09/01 10:41:56;;;;;;;4.40;4.30;;;;;;;;;;5131722;27;20514;-66
2022/09/01 10:44:22;;;;;;;5.60;5.20;;;;;;;;;;5131101;27;20443;-66
2022/09/01 10:46:49;;;;;;;5.37;5.07;;;;;;;;;;5131122;27;20431;-67
2022/09/01 10:49:27;;;;;;;5.40;5.00;;;;;;;;;;5131703;27;20423;-68
2022/09/01 10:51:54;;;;;;;9.60;3.80;;;;;;;;;;5131107;27;20518;-68
2022/09/01 10:54:38;;;;;;;4.37;3.83;;;;;;;;;;5129633;27;20562;-66
2022/09/01 10:57:09;;;;;;;4.63;4.27;;;;;;;;;;5130390;27;20473;-66
2022/09/01 10:59:34;;;;;;;3.60;3.50;;;;;;;;;;5130940;27;20514;-67
2022/09/01 11:02:03;;;;;;;4.10;4.00;;;;;;;;;;5131448;27;20464;-68
2022/09/01 11:04:29;;;;;;;4.10;4.00;;;;;;;;;;5130964;27;20422;-68
2022/09/01 11:07:05;;;;;;;4.10;3.33;;;;;;;;;;5130892;27;20411;-69
2022/09/01 11:09:41;;;;;;;3.00;2.90;;;;;;;;;;5130705;27;20189;-70
2022/09/01 11:12:14;;;;;;;3.70;3.47;;;;;;;;;;5130384;27;20441;-66
2022/09/01 11:14:52;;;;;;;3.40;3.30;;;;;;;;;;5112520;27;20423;-69
2022/09/01 11:17:24;;;;;;;3.73;3.40;;;;;;;;;;5122834;27;20478;-69
2022/09/01 11:19:59;;;;;;;4.60;4.40;;;;;;;;;;5129487;27;20548;-69
2022/09/01 11:22:31;;;;;;;4.10;3.90;;;;;;;;;;5127905;27;20933;-67
2022/09/01 11:25:12;;;;;;;3.23;2.90;;;;;;;;;;5129458;27;20509;-68
2022/09/01 11:27:48;;;;;;;2.93;2.83;;;;;;;;;;5129712;27;20450;-71
2022/09/01 11:30:21;;;;;;;3.00;3.00;;;;;;;;;;5128547;27;20490;-69
2022/09/01 11:32:49;;;;;;;2.87;2.87;;;;;;;;;;5129472;27;20419;-70
2022/09/01 11:35:17;;;;;;;3.83;3.73;;;;;;;;;;5129290;27;20423;-70
2022/09/01 11:37:47;;;;;;;3.53;3.00;;;;;;;;;;5111109;27;20560;-67
2022/09/01 11:40:19;;;;;;;2.67;2.67;;;;;;;;;;5127612;27;20431;-69
2022/09/01 11:42:45;;;;;;;2.97;2.87;;;;;;;;;;5129828;27;20427;-70
2022/09/01 11:45:16;;;;;;;5.20;2.93;;;;;;;;;;5127169;27;20434;-66
2022/09/01 11:47:45;;;;;;;3.20;3.17;;;;;;;;;;5129645;27;20514;-69
2022/09/01 11:50:22;;;;;;;3.57;3.40;;;;;;;;;;5129020;27;20803;-71
2022/09/01 11:53:02;;;;;;;3.20;3.10;;;;;;;;;;5129451;27;20430;-65
2022/09/01 11:55:34;;;;;;;2.80;2.70;;;;;;;;;;5129283;27;20435;-66
2022/09/01 11:58:01;;;;;;;2.40;2.40;;;;;;;;;;5129479;27;20478;-68
2022/09/01 12:00:29;;;;;;;3.07;3.00;;;;;;;;;;5130616;27;20958;-68
2022/09/01 12:02:56;;;;;;;3.20;3.07;;;;;;;;;;5129319;28;20454;-67
2022/09/01 12:05:30;;;;;;;9.47;3.10;;;;;;;;;;5129174;28;20431;-66
2022/09/01 12:07:57;;;;;;;5.73;2.60;;;;;;;;;;5130101;28;20780;-67
2022/09/01 12:10:26;;;;;;;3.20;3.03;;;;;;;;;;5130190;27;20463;-67
2022/09/01 12:12:59;;;;;;;3.13;2.90;;;;;;;;;;5129704;28;20418;-66
2022/09/01 12:15:26;;;;;;;3.93;2.50;;;;;;;;;;5130510;28;20435;-66
2022/09/01 12:17:53;;;;;;;2.10;2.10;;;;;;;;;;5129701;28;20557;-66
2022/09/01 12:20:29;;;;;;;3.03;2.77;;;;;;;;;;5127321;28;20427;-68
2022/09/01 12:22:56;;;;;;;2.50;2.40;;;;;;;;;;5126883;28;20847;-70
2022/09/01 12:25:24;;;;;;;2.37;2.37;;;;;;;;;;5130105;28;20422;-68
2022/09/01 12:27:51;;;;;;;2.23;2.23;;;;;;;;;;5129019;28;20502;-69
2022/09/01 12:30:17;;;;;;;3.23;2.20;;;;;;;;;;5130651;28;20419;-69
2022/09/01 12:32:43;;;;;;;2.40;2.40;;;;;;;;;;5129752;28;20434;-66
2022/09/01 12:35:18;;;;;;;2.20;2.20;;;;;;;;;;5129774;28;20419;-68
2022/09/01 12:37:44;;;;;;;2.50;2.50;;;;;;;;;;5128401;28;20461;-69
2022/09/01 12:40:24;;;;;;;2.73;2.73;;;;;;;;;;5109266;28;20431;-67
2022/09/01 12:42:51;;;;;;;2.20;2.20;;;;;;;;;;5128251;28;20487;-69
2022/09/01 12:45:35;;;;;;;2.40;2.40;;;;;;;;;;5128108;28;21133;-67
2022/09/01 12:48:01;;;;;;;2.00;1.87;;;;;;;;;;5127544;28;20525;-66
2022/09/01 12:50:27;;;;;;;1.90;1.90;;;;;;;;;;5127769;27;20530;-67
2022/09/01 12:52:58;;;;;;;2.27;2.17;;;;;;;;;;5129167;28;20419;-68
2022/09/01 12:55:26;;;;;;;2.30;2.20;;;;;;;;;;5129143;28;20437;-68
2022/09/01 12:57:54;;;;;;;2.83;2.63;;;;;;;;;;5128009;28;20482;-66
2022/09/01 13:00:28;;;;;;;2.70;2.60;;;;;;;;;;5128252;27;20442;-66
2022/09/01 13:02:54;;;;;;;2.90;2.57;;;;;;;;;;5132709;27;20559;-66
2022/09/01 13:05:26;;;;;;;1.90;1.90;;;;;;;;;;5132883;27;20525;-67
2022/09/01 13:07:53;;;;;;;2.20;2.20;;;;;;;;;;5133185;27;20229;-68
2022/09/01 13:10:20;;;;;;;2.27;2.17;;;;;;;;;;5131040;27;20430;-66
2022/09/01 13:12:46;;;;;;;3.20;3.00;;;;;;;;;;5131269;27;20518;-68
2022/09/01 13:15:13;;;;;;;2.30;2.30;;;;;;;;;;5131537;27;20941;-70
2022/09/01 13:17:39;;;;;;;2.53;2.53;;;;;;;;;;5133122;27;20491;-68
2022/09/01 13:20:06;;;;;;;2.70;2.60;;;;;;;;;;5132630;27;21001;-66
2022/09/01 13:22:32;;;;;;;2.17;2.07;;;;;;;;;;5133270;27;20434;-67
2022/09/01 13:24:59;;;;;;;3.33;3.00;;;;;;;;;;5132480;27;20956;-68
2022/09/01 13:27:25;;;;;;;2.23;2.23;;;;;;;;;;5132665;27;20427;-70
2022/09/01 13:29:51;;;;;;;2.00;2.00;;;;;;;;;;5132729;27;20437;-69
2022/09/01 13:32:17;;;;;;;2.17;2.17;;;;;;;;;;5133236;27;20422;-67
2022/09/01 13:34:43;;;;;;;1.77;1.70;;;;;;;;;;5132443;27;20521;-66
2022/09/01 13:37:09;;;;;;;1.90;1.80;;;;;;;;;;5132455;27;20505;-67
2022/09/01 13:39:35;;;;;;;2.20;2.20;;;;;;;;;;5132449;27;20220;-67
2022/09/01 13:42:01;;;;;;;2.10;2.10;;;;;;;;;;5132403;27;20510;-69
2022/09/01 13:44:27;;;;;;;1.90;1.90;;;;;;;;;;5132945;27;20184;-67
2022/09/01 13:46:54;;;;;;;2.40;2.40;;;;;;;;;;5130742;27;20177;-66
2022/09/01 13:49:20;;;;;;;1.70;1.70;;;;;;;;;;5130625;27;20422;-67
2022/09/01 13:51:55;;;;;;;1.90;1.90;;;;;;;;;;5132790;27;20431;-66
2022/09/01 13:54:21;;;;;;;2.37;2.13;;;;;;;;;;5132896;27;20422;-67
2022/09/01 13:56:47;;;;;;;3.10;3.00;;;;;;;;;;5131075;27;20582;-66
2022/09/01 13:59:13;;;;;;;1.70;1.70;;;;;;;;;;5132622;27;20573;-67
2022/09/01 14:01:42;;;;;;;2.27;2.20;;;;;;;;;;5130061;27;20922;-65
2022/09/01 14:04:09;;;;;;;2.83;2.20;;;;;;;;;;5132254;27;20450;-66
2022/09/01 14:06:39;;;;;;;9.37;1.93;;;;;;;;;;5132261;27;20968;-66
2022/09/01 14:09:05;;;;;;;3.00;2.13;;;;;;;;;;5132435;27;20427;-66
2022/09/01 14:11:31;;;;;;;1.83;1.83;;;;;;;;;;5132252;27;20846;-67
2022/09/01 14:13:57;;;;;;;2.10;1.90;;;;;;;;;;5132168;27;20533;-66
2022/09/01 14:16:23;;;;;;;1.90;1.90;;;;;;;;;;5132353;27;20411;-65
2022/09/01 14:18:49;;;;;;;2.20;2.10;;;;;;;;;;5130519;27;20543;-67
2022/09/01 14:21:15;;;;;;;2.23;2.23;;;;;;;;;;5132395;27;20422;-66
2022/09/01 14:23:42;;;;;;;2.47;2.27;;;;;;;;;;5131010;27;20442;-68
2022/09/01 14:26:10;;;;;;;1.80;1.80;;;;;;;;;;5131536;27;20752;-66
2022/09/01 14:28:36;;;;;;;2.03;2.03;;;;;;;;;;5130567;27;20439;-66
2022/09/01 14:31:06;;;;;;;1.90;1.90;;;;;;;;;;5132143;27;20464;-67
2022/09/01 14:33:32;;;;;;;1.93;1.93;;;;;;;;;;5131257;27;20431;-67
2022/09/01 14:35:58;;;;;;;1.80;1.80;;;;;;;;;;5112105;27;20519;-67
2022/09/01 14:38:24;;;;;;;4.77;2.10;;;;;;;;;;5130173;27;20548;-67
2022/09/01 14:40:51;;;;;;;3.33;1.60;;;;;;;;;;5125671;27;20190;-66
2022/09/01 14:43:17;;;;;;;2.17;2.17;;;;;;;;;;5128701;27;20495;-63
2022/09/01 14:45:45;;;;;;;1.77;1.77;;;;;;;;;;5129228;27;20438;-64
2022/09/01 14:48:14;;;;;;;2.17;1.97;;;;;;;;;;5128798;27;20957;-71